createdAt,value
2018-11-22T00:00:42.400Z,15.53
2018-11-22T00:01:47.651Z,15.55
2018-11-22T00:02:54.542Z,15.65
2018-11-22T00:03:59.902Z,15.58
2018-11-22T00:05:05.731Z,17.02
2018-11-22T00:06:11.110Z,15.10
2018-11-22T00:07:16.576Z,14.45
2018-11-22T00:08:22.711Z,16.05
2018-11-22T00:09:28.200Z,15.43
2018-11-22T00:10:34.267Z,14.23
2018-11-22T00:11:39.983Z,15.50
2018-11-22T00:12:45.501Z,16.15
2018-11-22T00:13:50.993Z,17.10
2018-11-22T00:14:56.276Z,14.45
2018-11-22T00:16:01.946Z,15.63
2018-11-22T00:17:07.572Z,14.53
2018-11-22T00:18:12.812Z,16.42
2018-11-22T00:19:18.211Z,15.72
2018-11-22T00:20:24.457Z,13.95
2018-11-22T00:21:30.604Z,15.68
2018-11-22T00:22:36.007Z,15.68
2018-11-22T00:23:42.349Z,15.10
2018-11-22T00:24:48.025Z,14.63
2018-11-22T00:25:53.380Z,14.47
2018-11-22T00:26:59.775Z,16.17
2018-11-22T00:28:05.265Z,15.55
2018-11-22T00:29:10.671Z,15.88
2018-11-22T00:30:20.994Z,15.72
2018-11-22T00:31:26.362Z,16.02
2018-11-22T00:32:31.624Z,15.40
2018-11-22T00:33:37.021Z,15.58
2018-11-22T00:34:42.746Z,15.25
2018-11-22T00:35:48.535Z,15.95
2018-11-22T00:36:53.877Z,17.25
2018-11-22T00:37:59.478Z,14.28
2018-11-22T00:39:07.739Z,12.98
2018-11-22T00:40:18.441Z,14.35
2018-11-22T00:41:23.775Z,14.28
2018-11-22T00:42:29.166Z,14.38
2018-11-22T00:43:34.658Z,14.78
2018-11-22T00:44:39.949Z,13.98
2018-11-22T00:45:46.229Z,15.55
2018-11-22T00:46:51.542Z,15.15
2018-11-22T00:47:57.051Z,15.03
2018-11-22T00:49:02.424Z,15.68
2018-11-22T00:50:09.259Z,15.50
2018-11-22T00:51:17.599Z,14.25
2018-11-22T00:52:26.504Z,14.95
2018-11-22T00:53:31.835Z,15.15
2018-11-22T00:54:37.281Z,16.15
2018-11-22T00:55:42.488Z,14.38
2018-11-22T00:56:48.162Z,14.80
2018-11-22T00:57:54.501Z,14.25
2018-11-22T00:59:02.678Z,14.80
2018-11-22T01:00:13.122Z,16.40
2018-11-22T01:01:18.368Z,17.00
2018-11-22T01:02:23.730Z,15.43
2018-11-22T01:03:29.021Z,15.72
2018-11-22T01:04:34.364Z,15.08
2018-11-22T01:05:39.719Z,15.13
2018-11-22T01:06:46.421Z,14.60
2018-11-22T01:07:51.799Z,15.35
2018-11-22T01:08:57.188Z,15.08
2018-11-22T01:10:02.556Z,16.23
2018-11-22T01:11:08.082Z,16.05
2018-11-22T01:12:13.396Z,15.45
2018-11-22T01:13:18.798Z,14.35
2018-11-22T01:14:24.203Z,15.48
2018-11-22T01:15:29.651Z,14.18
2018-11-22T01:16:35.017Z,14.20
2018-11-22T01:17:40.225Z,16.42
2018-11-22T01:18:45.618Z,14.60
2018-11-22T01:19:51.035Z,16.42
2018-11-22T01:20:56.385Z,15.60
2018-11-22T01:22:01.986Z,16.75
2018-11-22T01:23:07.419Z,15.90
2018-11-22T01:24:12.687Z,14.47
2018-11-22T01:25:19.864Z,14.85
2018-11-22T01:26:25.250Z,15.40
2018-11-22T01:27:30.562Z,14.85
2018-11-22T01:28:36.058Z,16.23
2018-11-22T01:29:41.782Z,15.15
2018-11-22T01:30:47.078Z,16.82
2018-11-22T01:31:52.323Z,15.68
2018-11-22T01:32:58.335Z,15.30
2018-11-22T01:34:03.576Z,15.20
2018-11-22T01:35:09.972Z,14.47
2018-11-22T01:36:15.578Z,15.80
2018-11-22T01:37:21.094Z,15.20
2018-11-22T01:38:26.398Z,15.83
2018-11-22T01:39:31.695Z,14.55
2018-11-22T01:40:37.017Z,15.78
2018-11-22T01:41:42.423Z,15.00
2018-11-22T01:42:48.817Z,15.65
2018-11-22T01:43:54.089Z,15.38
2018-11-22T01:45:00.846Z,15.32
2018-11-22T01:46:06.560Z,15.50
2018-11-22T01:47:12.042Z,15.28
2018-11-22T01:48:17.669Z,15.43
2018-11-22T01:49:23.521Z,16.37
2018-11-22T01:50:28.987Z,15.75
2018-11-22T01:51:34.576Z,16.23
2018-11-22T01:52:40.845Z,16.00
2018-11-22T01:53:46.198Z,16.62
2018-11-22T01:54:51.620Z,16.05
2018-11-22T01:55:57.017Z,16.73
2018-11-22T01:57:02.495Z,15.13
2018-11-22T01:58:07.815Z,15.05
2018-11-22T01:59:13.751Z,14.95
2018-11-22T02:00:21.910Z,15.75
2018-11-22T02:01:27.867Z,15.10
2018-11-22T02:02:33.368Z,15.58
2018-11-22T02:03:38.977Z,14.73
2018-11-22T02:04:44.338Z,15.43
2018-11-22T02:05:49.938Z,15.75
2018-11-22T02:06:55.247Z,15.63
2018-11-22T02:08:00.649Z,16.37
2018-11-22T02:09:09.016Z,15.20
2018-11-22T02:10:15.496Z,16.75
2018-11-22T02:11:20.885Z,15.65
2018-11-22T02:12:26.562Z,16.55
2018-11-22T02:13:31.801Z,13.93
2018-11-22T02:14:37.115Z,16.07
2018-11-22T02:15:42.723Z,15.98
2018-11-22T02:16:48.117Z,15.40
2018-11-22T02:17:53.389Z,15.50
2018-11-22T02:18:58.869Z,15.38
2018-11-22T02:20:04.548Z,15.93
2018-11-22T02:21:09.979Z,16.62
2018-11-22T02:22:16.108Z,14.80
2018-11-22T02:23:21.674Z,16.50
2018-11-22T02:24:27.189Z,16.85
2018-11-22T02:25:32.432Z,16.20
2018-11-22T02:26:38.948Z,15.45
2018-11-22T02:27:44.485Z,16.95
2018-11-22T02:28:50.203Z,15.00
2018-11-22T02:29:55.638Z,16.05
2018-11-22T02:31:01.254Z,16.25
2018-11-22T02:32:07.098Z,17.80
2018-11-22T02:33:14.970Z,14.95
2018-11-22T02:34:20.439Z,15.45
2018-11-22T02:35:26.377Z,16.07
2018-11-22T02:36:31.831Z,16.90
2018-11-22T02:37:37.541Z,15.70
2018-11-22T02:38:44.350Z,16.70
2018-11-22T02:39:49.883Z,15.23
2018-11-22T02:40:55.319Z,16.42
2018-11-22T02:42:00.683Z,16.77
2018-11-22T02:43:10.275Z,15.72
2018-11-22T02:44:18.851Z,16.32
2018-11-22T02:45:25.997Z,15.25
2018-11-22T02:46:31.586Z,16.82
2018-11-22T02:47:38.414Z,15.53
2018-11-22T02:48:43.041Z,17.32
2018-11-22T02:49:48.306Z,15.65
2018-11-22T02:50:57.103Z,16.20
2018-11-22T02:52:02.531Z,15.28
2018-11-22T02:53:08.103Z,14.85
2018-11-22T02:54:13.420Z,15.83
2018-11-22T02:55:18.681Z,16.73
2018-11-22T02:56:23.993Z,16.82
2018-11-22T02:57:29.436Z,16.93
2018-11-22T02:58:35.121Z,16.50
2018-11-22T02:59:40.451Z,16.55
2018-11-22T03:00:46.805Z,17.67
2018-11-22T03:01:52.153Z,17.42
2018-11-22T03:02:58.273Z,17.48
2018-11-22T03:04:03.697Z,16.32
2018-11-22T03:05:09.024Z,16.95
2018-11-22T03:06:14.550Z,16.57
2018-11-22T03:07:19.856Z,17.37
2018-11-22T03:08:25.197Z,17.55
2018-11-22T03:09:30.543Z,17.20
2018-11-22T03:10:35.947Z,15.18
2018-11-22T03:11:41.925Z,17.32
2018-11-22T03:12:48.253Z,18.15
2018-11-22T03:13:53.595Z,16.95
2018-11-22T03:14:59.797Z,16.48
2018-11-22T03:16:05.388Z,17.60
2018-11-22T03:17:11.618Z,18.40
2018-11-22T03:18:17.453Z,16.57
2018-11-22T03:19:22.812Z,17.57
2018-11-22T03:20:28.323Z,17.12
2018-11-22T03:21:33.827Z,17.95
2018-11-22T03:22:39.962Z,17.65
2018-11-22T03:23:45.196Z,16.60
2018-11-22T03:24:50.507Z,16.85
2018-11-22T03:25:55.924Z,17.48
2018-11-22T03:27:01.280Z,18.60
2018-11-22T03:28:06.751Z,17.15
2018-11-22T03:29:12.013Z,18.10
2018-11-22T03:30:18.563Z,16.30
2018-11-22T03:31:25.100Z,18.17
2018-11-22T03:32:30.422Z,18.62
2018-11-22T03:33:35.691Z,18.77
2018-11-22T03:34:40.963Z,18.23
2018-11-22T03:35:46.299Z,17.35
2018-11-22T03:36:51.625Z,17.92
2018-11-22T03:37:57.242Z,17.95
2018-11-22T03:39:03.328Z,20.27
2018-11-22T03:40:10.914Z,17.60
2018-11-22T03:41:16.430Z,18.48
2018-11-22T03:42:21.947Z,17.27
2018-11-22T03:43:27.343Z,17.12
2018-11-22T03:44:32.549Z,17.05
2018-11-22T03:45:37.884Z,17.73
2018-11-22T03:46:43.140Z,17.80
2018-11-22T03:47:48.477Z,17.32
2018-11-22T03:48:54.218Z,18.25
2018-11-22T03:50:00.413Z,20.95
2018-11-22T03:51:06.151Z,18.12
2018-11-22T03:52:11.590Z,17.82
2018-11-22T03:53:17.337Z,17.40
2018-11-22T03:54:22.652Z,16.55
2018-11-22T03:55:28.069Z,18.40
2018-11-22T03:56:33.451Z,17.70
2018-11-22T03:57:39.336Z,18.25
2018-11-22T03:58:44.735Z,18.95
2018-11-22T03:59:50.145Z,18.20
2018-11-22T04:00:55.535Z,16.93
2018-11-22T04:02:03.496Z,18.35
2018-11-22T04:03:08.751Z,17.40
2018-11-22T04:04:14.391Z,18.32
2018-11-22T04:05:21.258Z,19.52
2018-11-22T04:06:26.705Z,18.90
2018-11-22T04:07:31.960Z,19.75
2018-11-22T04:08:37.447Z,19.85
2018-11-22T04:09:42.923Z,20.68
2018-11-22T04:10:48.317Z,19.30
2018-11-22T04:11:53.645Z,17.42
2018-11-22T04:12:59.083Z,19.67
2018-11-22T04:14:04.568Z,18.65
2018-11-22T04:15:11.093Z,20.15
2018-11-22T04:16:17.028Z,19.05
2018-11-22T04:17:22.432Z,19.87
2018-11-22T04:18:28.140Z,17.35
2018-11-22T04:19:33.401Z,19.60
2018-11-22T04:20:38.745Z,18.80
2018-11-22T04:21:46.096Z,19.60
2018-11-22T04:22:51.664Z,19.80
2018-11-22T04:23:56.906Z,18.48
2018-11-22T04:25:02.164Z,20.50
2018-11-22T04:26:07.689Z,18.20
2018-11-22T04:27:13.011Z,20.92
2018-11-22T04:28:18.363Z,19.98
2018-11-22T04:29:23.745Z,19.77
2018-11-22T04:30:33.549Z,19.23
2018-11-22T04:31:38.785Z,18.30
2018-11-22T04:32:45.335Z,19.02
2018-11-22T04:33:50.618Z,19.32
2018-11-22T04:34:56.144Z,21.25
2018-11-22T04:36:01.376Z,18.20
2018-11-22T04:37:07.633Z,19.82
2018-11-22T04:38:12.863Z,19.75
2018-11-22T04:39:18.375Z,18.55
2018-11-22T04:40:24.924Z,20.48
2018-11-22T04:41:30.272Z,21.42
2018-11-22T04:42:35.637Z,22.65
2018-11-22T04:43:40.974Z,20.62
2018-11-22T04:44:46.376Z,18.87
2018-11-22T04:45:51.694Z,18.92
2018-11-22T04:46:57.408Z,19.57
2018-11-22T04:48:04.617Z,19.17
2018-11-22T04:49:09.879Z,19.52
2018-11-22T04:50:16.677Z,18.48
2018-11-22T04:51:22.391Z,17.90
2018-11-22T04:52:27.859Z,19.82
2018-11-22T04:53:33.322Z,20.30
2018-11-22T04:54:38.593Z,20.45
2018-11-22T04:55:43.861Z,20.68
2018-11-22T04:56:49.273Z,20.85
2018-11-22T04:57:57.975Z,18.80
2018-11-22T04:58:59.886Z,18.60
2018-11-22T05:00:08.092Z,21.10
2018-11-22T05:01:13.973Z,21.48
2018-11-22T05:02:19.744Z,18.50
2018-11-22T05:03:25.048Z,19.12
2018-11-22T05:04:30.768Z,20.20
2018-11-22T05:05:36.289Z,19.67
2018-11-22T05:06:41.567Z,20.82
2018-11-22T05:07:46.969Z,19.52
2018-11-22T05:08:52.497Z,18.52
2018-11-22T05:09:58.084Z,23.40
2018-11-22T05:11:03.529Z,19.77
2018-11-22T05:12:08.932Z,18.73
2018-11-22T05:13:14.328Z,17.77
2018-11-22T05:14:19.865Z,20.60
2018-11-22T05:15:26.881Z,20.97
2018-11-22T05:16:32.481Z,20.10
2018-11-22T05:17:38.211Z,19.98
2018-11-22T05:18:43.614Z,21.35
2018-11-22T05:19:48.908Z,21.27
2018-11-22T05:20:54.274Z,20.20
2018-11-22T05:21:59.604Z,20.77
2018-11-22T05:23:04.883Z,21.25
2018-11-22T05:24:10.215Z,20.60
2018-11-22T05:25:15.698Z,18.82
2018-11-22T05:26:21.101Z,19.55
2018-11-22T05:27:26.784Z,20.40
2018-11-22T05:28:32.208Z,19.30
2018-11-22T05:29:38.629Z,18.42
2018-11-22T05:30:44.389Z,21.55
2018-11-22T05:31:49.632Z,20.52
2018-11-22T05:32:55.286Z,21.93
2018-11-22T05:34:00.623Z,20.95
2018-11-22T05:35:08.893Z,20.12
2018-11-22T05:36:14.276Z,19.60
2018-11-22T05:37:20.779Z,21.90
2018-11-22T05:38:26.400Z,19.70
2018-11-22T05:39:31.898Z,21.05
2018-11-22T05:40:37.378Z,20.27
2018-11-22T05:41:43.933Z,22.35
2018-11-22T05:42:48.035Z,20.85
2018-11-22T05:43:53.336Z,22.70
2018-11-22T05:44:58.659Z,21.27
2018-11-22T05:46:03.990Z,22.10
2018-11-22T05:47:09.468Z,21.45
2018-11-22T05:48:14.743Z,20.77
2018-11-22T05:49:20.045Z,20.52
2018-11-22T05:50:26.834Z,20.60
2018-11-22T05:51:33.478Z,20.72
2018-11-22T05:52:38.950Z,22.80
2018-11-22T05:53:44.466Z,21.75
2018-11-22T05:54:50.040Z,21.00
2018-11-22T05:55:55.338Z,20.20
2018-11-22T05:57:00.650Z,20.97
2018-11-22T05:58:06.017Z,20.40
2018-11-22T05:59:14.066Z,22.20
2018-11-22T06:00:21.538Z,20.75
2018-11-22T06:01:27.295Z,20.45
2018-11-22T06:02:32.661Z,20.32
2018-11-22T06:03:38.120Z,20.30
2018-11-22T06:04:43.427Z,22.45
2018-11-22T06:05:48.784Z,21.80
2018-11-22T06:06:55.040Z,19.25
2018-11-22T06:08:01.354Z,21.62
2018-11-22T06:09:09.990Z,21.25
2018-11-22T06:10:22.907Z,21.90
2018-11-22T06:11:28.179Z,20.52
2018-11-22T06:12:33.523Z,21.90
2018-11-22T06:13:38.890Z,22.20
2018-11-22T06:14:44.671Z,21.05
2018-11-22T06:15:50.083Z,21.85
2018-11-22T06:16:55.509Z,23.87
2018-11-22T06:18:01.445Z,20.55
2018-11-22T06:19:06.986Z,22.85
2018-11-22T06:20:14.884Z,21.57
2018-11-22T06:21:20.117Z,22.65
2018-11-22T06:22:25.906Z,23.50
2018-11-22T06:23:31.573Z,19.73
2018-11-22T06:24:39.916Z,20.75
2018-11-22T06:25:45.174Z,20.40
2018-11-22T06:26:51.678Z,21.30
2018-11-22T06:27:57.739Z,21.57
2018-11-22T06:29:02.981Z,19.40
2018-11-22T06:30:19.715Z,22.82
2018-11-22T06:31:25.115Z,21.57
2018-11-22T06:32:30.703Z,20.75
2018-11-22T06:33:37.436Z,22.73
2018-11-22T06:34:42.841Z,21.82
2018-11-22T06:35:48.334Z,22.35
2018-11-22T06:36:53.754Z,22.05
2018-11-22T06:37:59.319Z,21.15
2018-11-22T06:39:05.657Z,22.15
2018-11-22T06:40:13.348Z,22.17
2018-11-22T06:41:18.908Z,20.92
2018-11-22T06:42:24.211Z,22.75
2018-11-22T06:43:29.446Z,22.10
2018-11-22T06:44:35.008Z,22.25
2018-11-22T06:45:40.363Z,27.10
2018-11-22T06:46:45.755Z,21.40
2018-11-22T06:47:51.672Z,22.58
2018-11-22T06:48:57.225Z,22.27
2018-11-22T06:50:02.699Z,22.52
2018-11-22T06:51:08.188Z,20.68
2018-11-22T06:52:13.619Z,22.48
2018-11-22T06:53:19.074Z,22.40
2018-11-22T06:54:24.488Z,22.50
2018-11-22T06:55:31.642Z,21.60
2018-11-22T06:56:36.898Z,23.05
2018-11-22T06:57:43.239Z,22.42
2018-11-22T06:58:48.574Z,24.02
2018-11-22T06:59:53.853Z,21.40
2018-11-22T07:00:59.765Z,21.87
2018-11-22T07:02:05.006Z,23.02
2018-11-22T07:03:10.858Z,22.60
2018-11-22T07:04:16.579Z,21.87
2018-11-22T07:05:23.103Z,22.85
2018-11-22T07:06:28.712Z,23.40
2018-11-22T07:07:34.957Z,22.60
2018-11-22T07:08:40.304Z,22.62
2018-11-22T07:09:45.759Z,22.77
2018-11-22T07:10:53.625Z,24.75
2018-11-22T07:11:59.209Z,23.55
2018-11-22T07:13:04.816Z,22.15
2018-11-22T07:14:10.264Z,21.90
2018-11-22T07:15:16.899Z,23.22
2018-11-22T07:16:22.339Z,24.07
2018-11-22T07:17:27.723Z,23.75
2018-11-22T07:18:33.160Z,23.15
2018-11-22T07:19:38.763Z,23.52
2018-11-22T07:20:44.295Z,22.75
2018-11-22T07:21:49.745Z,23.65
2018-11-22T07:22:57.750Z,25.02
2018-11-22T07:24:03.051Z,25.25
2018-11-22T07:25:12.130Z,25.50
2018-11-22T07:26:17.601Z,24.20
2018-11-22T07:27:23.047Z,22.05
2018-11-22T07:28:28.472Z,25.17
2018-11-22T07:29:33.726Z,24.57
2018-11-22T07:30:42.374Z,23.18
2018-11-22T07:31:44.969Z,23.00
2018-11-22T07:32:50.686Z,23.45
2018-11-22T07:33:55.954Z,25.62
2018-11-22T07:35:01.519Z,25.75
2018-11-22T07:36:07.120Z,24.50
2018-11-22T07:37:12.514Z,23.50
2018-11-22T07:38:17.933Z,23.95
2018-11-22T07:39:23.373Z,23.47
2018-11-22T07:40:30.070Z,23.32
2018-11-22T07:41:35.307Z,25.05
2018-11-22T07:42:40.895Z,24.40
2018-11-22T07:43:46.357Z,22.82
2018-11-22T07:44:51.680Z,24.32
2018-11-22T07:45:56.925Z,21.97
2018-11-22T07:47:02.441Z,22.07
2018-11-22T07:48:08.409Z,22.62
2018-11-22T07:49:13.657Z,24.05
2018-11-22T07:50:21.432Z,25.05
2018-11-22T07:51:26.872Z,24.23
2018-11-22T07:52:32.062Z,25.48
2018-11-22T07:53:37.740Z,22.15
2018-11-22T07:54:42.968Z,23.62
2018-11-22T07:55:48.529Z,24.27
2018-11-22T07:56:53.859Z,27.50
2018-11-22T07:57:59.330Z,24.07
2018-11-22T07:59:04.680Z,22.87
2018-11-22T08:00:15.681Z,23.42
2018-11-22T08:01:21.031Z,23.25
2018-11-22T08:02:26.368Z,22.77
2018-11-22T08:03:31.729Z,23.00
2018-11-22T08:04:36.961Z,24.55
2018-11-22T08:05:43.662Z,24.10
2018-11-22T08:06:49.162Z,23.27
2018-11-22T08:07:54.729Z,22.93
2018-11-22T08:09:00.157Z,23.05
2018-11-22T08:10:08.002Z,24.25
2018-11-22T08:11:13.387Z,24.52
2018-11-22T08:12:25.870Z,22.75
2018-11-22T08:13:24.186Z,20.70
2018-11-22T08:14:29.699Z,23.42
2018-11-22T08:15:36.686Z,23.65
2018-11-22T08:16:42.040Z,24.23
2018-11-22T08:17:47.730Z,24.72
2018-11-22T08:18:53.175Z,23.20
2018-11-22T08:19:58.506Z,25.48
2018-11-22T08:21:04.903Z,25.05
2018-11-22T08:22:09.945Z,23.22
2018-11-22T08:23:15.204Z,24.70
2018-11-22T08:24:20.568Z,25.30
2018-11-22T08:25:26.844Z,26.35
2018-11-22T08:26:32.102Z,25.60
2018-11-22T08:27:37.554Z,24.27
2018-11-22T08:28:43.248Z,24.32
2018-11-22T08:29:48.689Z,24.18
2018-11-22T08:30:54.088Z,22.35
2018-11-22T08:32:01.688Z,23.90
2018-11-22T08:33:07.177Z,26.00
2018-11-22T08:34:12.767Z,23.50
2018-11-22T08:35:18.633Z,22.35
2018-11-22T08:36:23.949Z,24.92
2018-11-22T08:37:29.278Z,24.12
2018-11-22T08:38:34.991Z,23.30
2018-11-22T08:39:40.678Z,22.67
2018-11-22T08:40:45.883Z,25.27
2018-11-22T08:41:51.248Z,23.57
2018-11-22T08:42:56.814Z,25.05
2018-11-22T08:44:02.074Z,23.70
2018-11-22T08:45:08.549Z,22.77
2018-11-22T08:46:13.786Z,25.02
2018-11-22T08:47:19.197Z,22.60
2018-11-22T08:48:24.564Z,21.62
2018-11-22T08:49:29.843Z,25.35
2018-11-22T08:50:35.384Z,24.55
2018-11-22T08:51:41.302Z,24.95
2018-11-22T08:52:47.967Z,22.45
2018-11-22T08:53:53.301Z,23.12
2018-11-22T08:54:58.625Z,23.47
2018-11-22T08:56:03.945Z,22.50
2018-11-22T08:57:09.258Z,22.58
2018-11-22T08:58:14.527Z,22.60
2018-11-22T08:59:19.817Z,23.38
2018-11-22T09:00:26.655Z,24.27
2018-11-22T09:01:32.172Z,23.95
2018-11-22T09:02:37.594Z,27.30
2018-11-22T09:03:42.936Z,25.55
2018-11-22T09:04:48.319Z,23.98
2018-11-22T09:05:53.791Z,24.43
2018-11-22T09:06:59.417Z,23.65
2018-11-22T09:08:04.895Z,25.43
2018-11-22T09:09:11.797Z,22.82
2018-11-22T09:10:18.765Z,23.20
2018-11-22T09:11:24.049Z,23.12
2018-11-22T09:12:29.379Z,24.70
2018-11-22T09:13:34.679Z,25.20
2018-11-22T09:14:40.073Z,21.95
2018-11-22T09:15:45.443Z,23.55
2018-11-22T09:16:50.693Z,24.85
2018-11-22T09:17:55.891Z,25.00
2018-11-22T09:19:01.343Z,22.60
2018-11-22T09:20:08.269Z,22.73
2018-11-22T09:21:13.524Z,24.70
2018-11-22T09:22:19.004Z,23.40
2018-11-22T09:23:24.647Z,24.90
2018-11-22T09:24:30.063Z,22.90
2018-11-22T09:25:36.646Z,21.95
2018-11-22T09:26:42.252Z,23.87
2018-11-22T09:27:47.757Z,25.17
2018-11-22T09:28:53.399Z,23.15
2018-11-22T09:29:58.861Z,24.12
2018-11-22T09:31:04.324Z,24.43
2018-11-22T09:32:09.693Z,24.65
2018-11-22T09:33:14.974Z,22.67
2018-11-22T09:34:20.453Z,24.20
2018-11-22T09:35:27.173Z,23.20
2018-11-22T09:36:32.561Z,24.20
2018-11-22T09:37:38.150Z,24.23
2018-11-22T09:38:43.363Z,24.52
2018-11-22T09:39:49.602Z,25.85
2018-11-22T09:40:54.978Z,23.35
2018-11-22T09:42:01.353Z,25.43
2018-11-22T09:43:06.989Z,23.32
2018-11-22T09:44:12.700Z,22.40
2018-11-22T09:45:24.189Z,22.22
2018-11-22T09:46:29.614Z,23.62
2018-11-22T09:47:35.320Z,24.50
2018-11-22T09:48:40.895Z,22.60
2018-11-22T09:49:46.165Z,21.50
2018-11-22T09:50:52.463Z,22.73
2018-11-22T09:51:58.247Z,24.47
2018-11-22T09:53:05.174Z,24.65
2018-11-22T09:54:10.805Z,21.62
2018-11-22T09:55:34.537Z,22.62
2018-11-22T09:56:58.566Z,24.23
2018-11-22T09:58:04.204Z,21.05
2018-11-22T09:59:09.525Z,20.80
2018-11-22T10:00:17.685Z,23.27
2018-11-22T10:01:23.058Z,22.20
2018-11-22T10:02:28.522Z,23.05
2018-11-22T10:03:33.879Z,23.35
2018-11-22T10:04:39.349Z,22.17
2018-11-22T10:05:44.762Z,22.87
2018-11-22T10:06:51.473Z,22.05
2018-11-22T10:07:56.761Z,22.27
2018-11-22T10:09:21.060Z,23.52
2018-11-22T10:10:41.132Z,21.05
2018-11-22T10:11:47.260Z,23.92
2018-11-22T10:12:52.654Z,22.77
2018-11-22T10:13:58.008Z,24.87
2018-11-22T10:15:03.410Z,22.60
2018-11-22T10:16:08.867Z,22.07
2018-11-22T10:17:14.271Z,21.25
2018-11-22T10:18:19.637Z,20.68
2018-11-22T10:19:25.273Z,21.77
2018-11-22T10:20:30.788Z,22.73
2018-11-22T10:21:36.217Z,22.62
2018-11-22T10:22:43.967Z,21.45
2018-11-22T10:23:49.364Z,22.48
2018-11-22T10:24:54.989Z,21.77
2018-11-22T10:26:00.336Z,21.20
2018-11-22T10:27:05.790Z,22.93
2018-11-22T10:28:11.084Z,23.65
2018-11-22T10:29:35.130Z,22.55
2018-11-22T10:30:58.628Z,20.60
2018-11-22T10:32:04.654Z,19.82
2018-11-22T10:33:10.206Z,21.33
2018-11-22T10:34:15.200Z,21.90
2018-11-22T10:35:39.355Z,22.82
2018-11-22T10:37:03.011Z,21.97
2018-11-22T10:38:26.770Z,21.07
2018-11-22T10:39:50.920Z,22.73
2018-11-22T10:41:14.645Z,21.80
2018-11-22T10:42:20.171Z,23.55
2018-11-22T10:43:25.255Z,18.10
2018-11-22T10:44:49.079Z,23.40
2018-11-22T10:46:13.206Z,22.13
2018-11-22T10:47:37.735Z,22.48
2018-11-22T10:49:01.503Z,24.07
2018-11-22T12:15:55.640Z,23.00
2018-11-22T12:16:59.680Z,21.65
2018-11-22T12:18:03.717Z,23.07
2018-11-22T12:19:12.125Z,24.07
2018-11-22T12:20:16.972Z,23.62
2018-11-22T12:21:21.090Z,23.92
2018-11-22T12:22:25.137Z,23.60
2018-11-22T12:23:29.200Z,24.07
2018-11-22T12:24:33.381Z,25.15
2018-11-22T12:25:37.669Z,22.80
2018-11-22T12:26:41.768Z,23.95
2018-11-22T12:27:47.608Z,22.80
2018-11-22T12:28:51.665Z,24.07
2018-11-22T12:29:55.775Z,25.77
2018-11-22T12:31:06.398Z,24.00
2018-11-22T12:32:09.228Z,23.27
2018-11-22T12:33:19.529Z,22.20
2018-11-22T12:34:28.730Z,22.98
2018-11-22T12:35:38.158Z,22.82
2018-11-22T12:36:47.518Z,22.37
2018-11-22T12:37:56.961Z,22.45
2018-11-22T12:39:01.051Z,24.80
2018-11-22T12:40:07.944Z,22.82
2018-11-22T12:41:12.065Z,23.15
2018-11-22T12:42:16.121Z,24.80
2018-11-22T12:43:21.247Z,24.65
2018-11-22T12:44:25.399Z,24.32
2018-11-22T12:45:29.825Z,24.07
2018-11-22T12:46:33.896Z,24.02
2018-11-22T12:47:37.917Z,23.38
2018-11-22T12:48:42.541Z,23.00
2018-11-22T12:49:46.654Z,21.10
2018-11-22T12:50:50.758Z,23.27
2018-11-22T12:51:54.909Z,23.38
2018-11-22T12:52:59.046Z,21.93
2018-11-22T12:54:03.114Z,20.17
2018-11-22T12:55:08.637Z,23.95
2018-11-22T12:56:12.783Z,23.45
2018-11-22T12:57:16.791Z,24.15
2018-11-22T12:58:21.344Z,22.75
2018-11-22T12:59:25.433Z,22.58
2018-11-22T13:00:29.487Z,22.02
2018-11-22T13:01:33.615Z,24.20
2018-11-22T13:02:37.740Z,24.57
2018-11-22T13:03:41.780Z,24.72
2018-11-22T13:04:45.822Z,24.15
2018-11-22T13:05:49.923Z,24.32
2018-11-22T13:06:53.969Z,24.95
2018-11-22T13:07:58.037Z,25.02
2018-11-22T13:09:02.069Z,24.43
2018-11-22T13:10:07.859Z,25.75
2018-11-22T13:11:11.878Z,23.90
2018-11-22T13:12:15.936Z,22.95
2018-11-22T13:13:20.000Z,24.70
2018-11-22T13:14:24.015Z,23.75
2018-11-22T13:15:28.125Z,22.48
2018-11-22T13:16:32.535Z,23.62
2018-11-22T13:17:36.596Z,21.57
2018-11-22T13:18:40.665Z,21.93
2018-11-22T13:19:44.774Z,22.13
2018-11-22T13:20:48.810Z,22.90
2018-11-22T13:21:52.864Z,23.65
2018-11-22T13:22:56.989Z,24.75
2018-11-22T13:24:01.157Z,22.85
2018-11-22T13:25:06.359Z,23.85
2018-11-22T13:26:10.650Z,23.20
2018-11-22T13:27:14.651Z,21.45
2018-11-22T13:28:18.771Z,24.55
2018-11-22T13:29:22.840Z,23.92
2018-11-22T13:30:28.085Z,22.50
2018-11-22T13:31:32.114Z,24.27
2018-11-22T13:32:36.233Z,22.55
2018-11-22T13:33:40.351Z,22.87
2018-11-22T13:34:44.539Z,20.25
2018-11-22T13:35:48.646Z,23.50
2018-11-22T13:36:52.734Z,22.60
2018-11-22T13:37:57.211Z,23.92
2018-11-22T13:39:01.269Z,22.75
2018-11-22T13:40:06.633Z,23.35
2018-11-22T13:41:10.782Z,22.73
2018-11-22T13:42:14.825Z,24.37
2018-11-22T13:43:18.828Z,22.17
2018-11-22T13:44:23.209Z,21.68
2018-11-22T13:45:29.241Z,24.75
2018-11-22T13:46:34.469Z,22.65
2018-11-22T13:47:40.052Z,23.12
2018-11-22T13:48:44.094Z,22.17
2018-11-22T13:49:48.225Z,23.90
2018-11-22T13:50:52.293Z,23.57
2018-11-22T13:51:56.331Z,24.00
2018-11-22T13:53:03.880Z,24.65
2018-11-22T13:54:07.913Z,21.27
2018-11-22T13:55:12.108Z,22.42
2018-11-22T13:56:16.190Z,22.50
2018-11-22T13:57:20.246Z,21.97
2018-11-22T13:58:24.302Z,21.05
2018-11-22T13:59:28.372Z,21.90
2018-11-22T14:00:33.574Z,23.18
2018-11-22T14:01:37.698Z,23.80
2018-11-22T14:02:42.189Z,22.48
2018-11-22T14:03:46.188Z,24.67
2018-11-22T14:04:50.255Z,22.87
2018-11-22T14:05:54.352Z,23.80
2018-11-22T14:06:58.713Z,23.40
2018-11-22T14:08:02.797Z,23.47
2018-11-22T14:09:08.560Z,23.32
2018-11-22T14:10:17.126Z,23.38
2018-11-22T14:11:22.337Z,23.55
2018-11-22T14:12:26.398Z,21.37
2018-11-22T14:13:30.395Z,23.30
2018-11-22T14:14:34.593Z,22.32
2018-11-22T14:15:38.690Z,22.85
2018-11-22T14:16:42.874Z,23.10
2018-11-22T14:17:47.484Z,25.27
2018-11-22T14:18:51.781Z,21.62
2018-11-22T14:19:55.741Z,21.73
2018-11-22T14:20:59.880Z,21.62
2018-11-22T14:22:04.073Z,21.20
2018-11-22T14:23:08.155Z,20.45
2018-11-22T14:24:12.292Z,21.50
2018-11-22T14:25:16.964Z,21.35
2018-11-22T14:26:21.058Z,22.37
2018-11-22T14:27:25.189Z,22.65
2018-11-22T14:28:29.254Z,22.48
2018-11-22T14:29:35.480Z,22.02
2018-11-22T14:30:39.543Z,22.13
2018-11-22T14:31:43.788Z,20.68
2018-11-22T14:32:49.023Z,20.97
2018-11-22T14:33:53.446Z,21.07
2018-11-22T14:35:00.524Z,21.73
2018-11-22T14:36:01.790Z,22.98
2018-11-22T14:37:05.937Z,22.35
2018-11-22T14:38:10.007Z,23.18
2018-11-22T14:39:14.057Z,20.97
2018-11-22T14:40:20.573Z,19.50
2018-11-22T14:41:24.660Z,22.15
2018-11-22T14:42:28.818Z,21.40
2018-11-22T14:43:33.109Z,20.35
2018-11-22T14:44:37.191Z,22.22
2018-11-22T14:45:41.270Z,22.93
2018-11-22T14:46:45.320Z,20.90
2018-11-22T14:47:50.230Z,22.17
2018-11-22T14:48:54.293Z,21.80
2018-11-22T14:49:58.378Z,22.42
2018-11-22T14:51:07.083Z,22.15
2018-11-22T14:52:11.382Z,20.77
2018-11-22T14:53:17.368Z,20.80
2018-11-22T14:54:21.414Z,21.00
2018-11-22T14:55:25.477Z,22.20
2018-11-22T14:56:29.581Z,23.22
2018-11-22T14:57:33.671Z,21.05
2018-11-22T14:58:37.754Z,21.10
2018-11-22T14:59:42.178Z,20.62
2018-11-22T15:00:46.232Z,19.55
2018-11-22T15:01:50.249Z,21.35
2018-11-22T15:02:54.297Z,22.93
2018-11-22T15:03:58.380Z,22.42
2018-11-22T15:05:02.486Z,22.62
2018-11-22T15:06:06.592Z,20.23
2018-11-22T15:07:11.505Z,20.02
2018-11-22T15:08:15.490Z,20.70
2018-11-22T15:09:19.553Z,19.15
2018-11-22T15:10:23.589Z,20.75
2018-11-22T15:11:27.709Z,22.07
2018-11-22T15:12:31.770Z,22.95
2018-11-22T15:13:35.791Z,20.88
2018-11-22T15:14:40.396Z,21.25
2018-11-22T15:15:44.509Z,21.57
2018-11-22T15:16:48.560Z,22.40
2018-11-22T15:17:52.644Z,20.20
2018-11-22T15:18:56.707Z,20.70
2018-11-22T15:20:00.867Z,20.60
2018-11-22T15:21:05.238Z,20.65
2018-11-22T15:22:09.306Z,20.23
2018-11-22T15:23:13.333Z,20.00
2018-11-22T15:24:17.614Z,20.82
2018-11-22T15:25:23.014Z,20.15
2018-11-22T15:26:27.276Z,19.77
2018-11-22T15:27:31.310Z,20.12
2018-11-22T15:28:35.394Z,20.82
2018-11-22T15:29:39.516Z,20.05
2018-11-22T15:30:43.616Z,21.70
2018-11-22T15:31:47.777Z,19.48
2018-11-22T15:32:52.067Z,21.20
2018-11-22T15:33:56.404Z,22.52